sensor_id;sensor_type;location;lat;lon;timestamp;P1;durP1;ratioP1;P2;durP2;ratioP2
47365;SDS011;33105;47.964;7.982;2022-07-17T00:02:53;3.85;;;2.20;;
47365;SDS011;33105;47.964;7.982;2022-07-17T00:05:55;4.75;;;2.13;;
47365;SDS011;33105;47.964;7.982;2022-07-17T00:08:56;5.57;;;2.40;;
47365;SDS011;33105;47.964;7.982;2022-07-17T00:11:57;4.82;;;2.20;;
47365;SDS011;33105;47.964;7.982;2022-07-17T00:14:59;2.55;;;1.90;;
47365;SDS011;33105;47.964;7.982;2022-07-17T00:18:01;5.53;;;1.85;;
47365;SDS011;33105;47.964;7.982;2022-07-17T00:21:03;5.07;;;1.80;;
47365;SDS011;33105;47.964;7.982;2022-07-17T00:24:04;2.67;;;1.58;;
47365;SDS011;33105;47.964;7.982;2022-07-17T00:27:07;5.50;;;1.60;;
47365;SDS011;33105;47.964;7.982;2022-07-17T00:30:08;5.03;;;1.60;;
47365;SDS011;33105;47.964;7.982;2022-07-17T00:33:11;5.93;;;1.92;;
47365;SDS011;33105;47.964;7.982;2022-07-17T00:36:12;3.88;;;2.05;;
47365;SDS011;33105;47.964;7.982;2022-07-17T00:39:13;2.80;;;1.70;;
47365;SDS011;33105;47.964;7.982;2022-07-17T00:42:15;7.45;;;1.63;;
47365;SDS011;33105;47.964;7.982;2022-07-17T00:45:17;2.72;;;1.67;;
47365;SDS011;33105;47.964;7.982;2022-07-17T00:48:18;2.22;;;1.52;;
47365;SDS011;33105;47.964;7.982;2022-07-17T00:51:20;4.90;;;1.92;;
47365;SDS011;33105;47.964;7.982;2022-07-17T00:54:21;7.35;;;1.92;;
47365;SDS011;33105;47.964;7.982;2022-07-17T00:57:23;7.45;;;1.92;;
47365;SDS011;33105;47.964;7.982;2022-07-17T01:00:27;2.95;;;1.67;;
47365;SDS011;33105;47.964;7.982;2022-07-17T01:03:28;4.47;;;1.70;;
47365;SDS011;33105;47.964;7.982;2022-07-17T01:06:29;1.95;;;1.55;;
47365;SDS011;33105;47.964;7.982;2022-07-17T01:09:31;5.18;;;1.90;;
47365;SDS011;33105;47.964;7.982;2022-07-17T01:12:33;5.43;;;1.80;;
47365;SDS011;33105;47.964;7.982;2022-07-17T01:15:38;3.08;;;1.90;;
47365;SDS011;33105;47.964;7.982;2022-07-17T01:18:41;3.88;;;1.70;;
47365;SDS011;33105;47.964;7.982;2022-07-17T01:21:43;3.97;;;1.90;;
47365;SDS011;33105;47.964;7.982;2022-07-17T01:24:46;5.13;;;1.80;;
47365;SDS011;33105;47.964;7.982;2022-07-17T01:27:47;3.72;;;1.60;;
47365;SDS011;33105;47.964;7.982;2022-07-17T01:30:50;4.78;;;1.77;;
47365;SDS011;33105;47.964;7.982;2022-07-17T01:33:52;3.25;;;1.73;;
47365;SDS011;33105;47.964;7.982;2022-07-17T01:36:54;4.30;;;1.60;;
47365;SDS011;33105;47.964;7.982;2022-07-17T01:39:55;3.60;;;1.70;;
47365;SDS011;33105;47.964;7.982;2022-07-17T01:42:57;2.70;;;1.70;;
47365;SDS011;33105;47.964;7.982;2022-07-17T01:45:58;3.75;;;1.92;;
47365;SDS011;33105;47.964;7.982;2022-07-17T01:49:00;2.80;;;1.90;;
47365;SDS011;33105;47.964;7.982;2022-07-17T01:52:04;5.95;;;1.92;;
47365;SDS011;33105;47.964;7.982;2022-07-17T01:55:06;4.78;;;2.25;;
47365;SDS011;33105;47.964;7.982;2022-07-17T01:58:09;3.63;;;1.95;;
47365;SDS011;33105;47.964;7.982;2022-07-17T02:01:10;2.55;;;1.85;;
47365;SDS011;33105;47.964;7.982;2022-07-17T02:04:12;3.10;;;1.77;;
47365;SDS011;33105;47.964;7.982;2022-07-17T02:07:13;3.53;;;1.90;;
47365;SDS011;33105;47.964;7.982;2022-07-17T02:10:14;4.22;;;1.77;;
47365;SDS011;33105;47.964;7.982;2022-07-17T02:13:15;3.75;;;1.90;;
47365;SDS011;33105;47.964;7.982;2022-07-17T02:16:17;4.88;;;1.75;;
47365;SDS011;33105;47.964;7.982;2022-07-17T02:19:19;4.53;;;2.00;;
47365;SDS011;33105;47.964;7.982;2022-07-17T02:22:21;4.90;;;1.80;;
47365;SDS011;33105;47.964;7.982;2022-07-17T02:25:22;2.45;;;1.65;;
47365;SDS011;33105;47.964;7.982;2022-07-17T02:28:24;5.65;;;1.75;;
47365;SDS011;33105;47.964;7.982;2022-07-17T02:31:25;2.35;;;1.92;;
47365;SDS011;33105;47.964;7.982;2022-07-17T02:34:26;4.70;;;1.88;;
47365;SDS011;33105;47.964;7.982;2022-07-17T02:37:27;2.47;;;1.65;;
47365;SDS011;33105;47.964;7.982;2022-07-17T02:40:29;4.03;;;2.10;;
47365;SDS011;33105;47.964;7.982;2022-07-17T02:43:30;3.75;;;2.15;;
47365;SDS011;33105;47.964;7.982;2022-07-17T02:46:31;3.10;;;2.22;;
47365;SDS011;33105;47.964;7.982;2022-07-17T02:49:32;3.13;;;2.08;;
47365;SDS011;33105;47.964;7.982;2022-07-17T02:52:33;4.05;;;2.30;;
47365;SDS011;33105;47.964;7.982;2022-07-17T02:55:35;6.05;;;2.20;;
47365;SDS011;33105;47.964;7.982;2022-07-17T02:58:36;2.72;;;2.13;;
47365;SDS011;33105;47.964;7.982;2022-07-17T03:01:38;11.38;;;2.85;;
47365;SDS011;33105;47.964;7.982;2022-07-17T03:04:40;5.25;;;2.35;;
47365;SDS011;33105;47.964;7.982;2022-07-17T03:07:42;3.75;;;2.17;;
47365;SDS011;33105;47.964;7.982;2022-07-17T03:10:44;3.97;;;1.80;;
47365;SDS011;33105;47.964;7.982;2022-07-17T03:13:46;3.50;;;2.05;;
47365;SDS011;33105;47.964;7.982;2022-07-17T03:16:47;3.10;;;2.22;;
47365;SDS011;33105;47.964;7.982;2022-07-17T03:19:48;2.75;;;2.10;;
47365;SDS011;33105;47.964;7.982;2022-07-17T03:22:49;4.05;;;1.90;;
47365;SDS011;33105;47.964;7.982;2022-07-17T03:25:51;2.47;;;1.90;;
47365;SDS011;33105;47.964;7.982;2022-07-17T03:28:52;3.47;;;1.98;;
47365;SDS011;33105;47.964;7.982;2022-07-17T03:31:53;2.35;;;1.90;;
47365;SDS011;33105;47.964;7.982;2022-07-17T03:34:54;3.63;;;1.90;;
47365;SDS011;33105;47.964;7.982;2022-07-17T03:37:56;6.32;;;2.28;;
47365;SDS011;33105;47.964;7.982;2022-07-17T03:40:58;5.28;;;2.55;;
47365;SDS011;33105;47.964;7.982;2022-07-17T03:44:00;5.90;;;2.30;;
47365;SDS011;33105;47.964;7.982;2022-07-17T03:47:01;3.28;;;2.20;;
47365;SDS011;33105;47.964;7.982;2022-07-17T03:50:03;5.32;;;2.10;;
47365;SDS011;33105;47.964;7.982;2022-07-17T03:53:04;4.97;;;2.17;;
47365;SDS011;33105;47.964;7.982;2022-07-17T03:56:06;3.55;;;2.00;;
47365;SDS011;33105;47.964;7.982;2022-07-17T03:59:07;3.40;;;1.90;;
47365;SDS011;33105;47.964;7.982;2022-07-17T04:02:09;2.47;;;1.90;;
47365;SDS011;33105;47.964;7.982;2022-07-17T04:05:10;2.33;;;1.92;;
47365;SDS011;33105;47.964;7.982;2022-07-17T04:08:11;3.83;;;2.00;;
47365;SDS011;33105;47.964;7.982;2022-07-17T04:11:16;5.45;;;1.90;;
47365;SDS011;33105;47.964;7.982;2022-07-17T04:14:17;6.28;;;2.00;;
47365;SDS011;33105;47.964;7.982;2022-07-17T04:17:18;2.85;;;1.92;;
47365;SDS011;33105;47.964;7.982;2022-07-17T04:20:19;4.30;;;2.00;;
47365;SDS011;33105;47.964;7.982;2022-07-17T04:23:21;4.03;;;1.98;;
47365;SDS011;33105;47.964;7.982;2022-07-17T04:26:22;5.78;;;2.03;;
47365;SDS011;33105;47.964;7.982;2022-07-17T04:29:23;4.20;;;1.80;;
47365;SDS011;33105;47.964;7.982;2022-07-17T04:32:25;2.53;;;1.88;;
47365;SDS011;33105;47.964;7.982;2022-07-17T04:35:26;4.22;;;2.30;;
47365;SDS011;33105;47.964;7.982;2022-07-17T04:38:27;2.58;;;1.98;;
47365;SDS011;33105;47.964;7.982;2022-07-17T04:41:29;2.92;;;1.75;;
47365;SDS011;33105;47.964;7.982;2022-07-17T04:44:30;5.88;;;1.83;;
47365;SDS011;33105;47.964;7.982;2022-07-17T04:47:31;2.38;;;2.17;;
47365;SDS011;33105;47.964;7.982;2022-07-17T04:50:32;4.68;;;2.00;;
47365;SDS011;33105;47.964;7.982;2022-07-17T04:53:34;3.33;;;2.20;;
47365;SDS011;33105;47.964;7.982;2022-07-17T04:56:36;2.75;;;2.13;;
47365;SDS011;33105;47.964;7.982;2022-07-17T04:59:37;4.60;;;2.50;;
47365;SDS011;33105;47.964;7.982;2022-07-17T05:02:39;4.82;;;2.20;;
47365;SDS011;33105;47.964;7.982;2022-07-17T05:05:40;2.88;;;2.15;;
47365;SDS011;33105;47.964;7.982;2022-07-17T05:08:41;2.95;;;1.90;;
47365;SDS011;33105;47.964;7.982;2022-07-17T05:11:43;4.18;;;2.60;;
47365;SDS011;33105;47.964;7.982;2022-07-17T05:14:44;3.13;;;2.22;;
47365;SDS011;33105;47.964;7.982;2022-07-17T05:17:46;3.15;;;2.25;;
47365;SDS011;33105;47.964;7.982;2022-07-17T05:20:48;4.35;;;2.35;;
47365;SDS011;33105;47.964;7.982;2022-07-17T05:23:49;4.40;;;2.30;;
47365;SDS011;33105;47.964;7.982;2022-07-17T05:26:50;2.85;;;2.13;;
47365;SDS011;33105;47.964;7.982;2022-07-17T05:29:51;4.63;;;2.17;;
47365;SDS011;33105;47.964;7.982;2022-07-17T05:32:53;3.60;;;2.38;;
47365;SDS011;33105;47.964;7.982;2022-07-17T05:35:54;3.53;;;2.15;;
47365;SDS011;33105;47.964;7.982;2022-07-17T05:38:55;4.57;;;1.90;;
47365;SDS011;33105;47.964;7.982;2022-07-17T05:41:56;3.47;;;2.30;;
47365;SDS011;33105;47.964;7.982;2022-07-17T05:44:57;4.78;;;2.00;;
47365;SDS011;33105;47.964;7.982;2022-07-17T05:47:59;4.97;;;2.00;;
47365;SDS011;33105;47.964;7.982;2022-07-17T05:51:01;7.18;;;1.85;;
47365;SDS011;33105;47.964;7.982;2022-07-17T05:54:02;4.50;;;2.15;;
47365;SDS011;33105;47.964;7.982;2022-07-17T05:57:03;5.22;;;2.15;;
47365;SDS011;33105;47.964;7.982;2022-07-17T06:00:05;4.05;;;1.55;;
47365;SDS011;33105;47.964;7.982;2022-07-17T06:03:12;4.38;;;2.00;;
47365;SDS011;33105;47.964;7.982;2022-07-17T06:06:14;3.63;;;1.73;;
47365;SDS011;33105;47.964;7.982;2022-07-17T06:09:15;1.83;;;1.70;;
47365;SDS011;33105;47.964;7.982;2022-07-17T06:12:17;4.60;;;2.05;;
47365;SDS011;33105;47.964;7.982;2022-07-17T06:15:19;4.97;;;1.88;;
47365;SDS011;33105;47.964;7.982;2022-07-17T06:18:20;3.42;;;1.70;;
47365;SDS011;33105;47.964;7.982;2022-07-17T06:21:22;5.60;;;1.70;;
47365;SDS011;33105;47.964;7.982;2022-07-17T06:24:23;1.83;;;1.60;;
47365;SDS011;33105;47.964;7.982;2022-07-17T06:27:24;2.63;;;1.85;;
47365;SDS011;33105;47.964;7.982;2022-07-17T06:30:25;1.67;;;1.40;;
47365;SDS011;33105;47.964;7.982;2022-07-17T06:33:27;2.95;;;1.80;;
47365;SDS011;33105;47.964;7.982;2022-07-17T06:36:28;6.53;;;1.85;;
47365;SDS011;33105;47.964;7.982;2022-07-17T06:39:29;2.60;;;1.75;;
47365;SDS011;33105;47.964;7.982;2022-07-17T06:42:30;5.90;;;1.63;;
47365;SDS011;33105;47.964;7.982;2022-07-17T06:45:32;2.28;;;1.52;;
47365;SDS011;33105;47.964;7.982;2022-07-17T06:48:33;7.70;;;1.70;;
47365;SDS011;33105;47.964;7.982;2022-07-17T06:51:34;3.03;;;1.40;;
47365;SDS011;33105;47.964;7.982;2022-07-17T06:54:36;4.47;;;1.75;;
47365;SDS011;33105;47.964;7.982;2022-07-17T06:57:37;2.58;;;1.58;;
47365;SDS011;33105;47.964;7.982;2022-07-17T07:00:38;2.83;;;1.45;;
47365;SDS011;33105;47.964;7.982;2022-07-17T07:03:40;1.92;;;1.48;;
47365;SDS011;33105;47.964;7.982;2022-07-17T07:06:42;5.53;;;1.80;;
47365;SDS011;33105;47.964;7.982;2022-07-17T07:09:43;2.10;;;1.50;;
47365;SDS011;33105;47.964;7.982;2022-07-17T07:12:44;4.57;;;1.50;;
47365;SDS011;33105;47.964;7.982;2022-07-17T07:15:45;2.35;;;1.60;;
47365;SDS011;33105;47.964;7.982;2022-07-17T07:18:47;3.53;;;1.75;;
47365;SDS011;33105;47.964;7.982;2022-07-17T07:21:48;2.15;;;1.50;;
47365;SDS011;33105;47.964;7.982;2022-07-17T07:24:49;2.80;;;1.60;;
47365;SDS011;33105;47.964;7.982;2022-07-17T07:27:51;4.18;;;1.70;;
47365;SDS011;33105;47.964;7.982;2022-07-17T07:30:52;3.42;;;1.67;;
47365;SDS011;33105;47.964;7.982;2022-07-17T07:33:53;4.35;;;1.48;;
47365;SDS011;33105;47.964;7.982;2022-07-17T07:36:54;4.20;;;1.55;;
47365;SDS011;33105;47.964;7.982;2022-07-17T07:39:55;2.42;;;1.63;;
47365;SDS011;33105;47.964;7.982;2022-07-17T07:42:57;4.15;;;1.70;;
47365;SDS011;33105;47.964;7.982;2022-07-17T07:45:59;3.83;;;1.23;;
47365;SDS011;33105;47.964;7.982;2022-07-17T07:49:00;2.47;;;1.55;;
47365;SDS011;33105;47.964;7.982;2022-07-17T07:52:01;6.00;;;1.30;;
47365;SDS011;33105;47.964;7.982;2022-07-17T07:55:03;6.95;;;1.85;;
47365;SDS011;33105;47.964;7.982;2022-07-17T07:58:09;1.30;;;1.20;;
47365;SDS011;33105;47.964;7.982;2022-07-17T08:01:11;3.78;;;1.40;;
47365;SDS011;33105;47.964;7.982;2022-07-17T08:04:13;2.85;;;1.30;;
47365;SDS011;33105;47.964;7.982;2022-07-17T08:07:14;5.72;;;1.58;;
47365;SDS011;33105;47.964;7.982;2022-07-17T08:10:15;3.47;;;1.30;;
47365;SDS011;33105;47.964;7.982;2022-07-17T08:13:16;7.18;;;1.40;;
47365;SDS011;33105;47.964;7.982;2022-07-17T08:16:18;11.23;;;1.50;;
47365;SDS011;33105;47.964;7.982;2022-07-17T08:19:19;6.35;;;1.58;;
47365;SDS011;33105;47.964;7.982;2022-07-17T08:22:20;3.30;;;1.83;;
47365;SDS011;33105;47.964;7.982;2022-07-17T08:25:21;7.85;;;1.70;;
47365;SDS011;33105;47.964;7.982;2022-07-17T08:28:23;3.22;;;1.65;;
47365;SDS011;33105;47.964;7.982;2022-07-17T08:31:25;7.53;;;1.45;;
47365;SDS011;33105;47.964;7.982;2022-07-17T08:34:26;10.07;;;1.95;;
47365;SDS011;33105;47.964;7.982;2022-07-17T08:37:27;3.65;;;1.60;;
47365;SDS011;33105;47.964;7.982;2022-07-17T08:40:31;8.48;;;1.85;;
47365;SDS011;33105;47.964;7.982;2022-07-17T08:43:36;5.05;;;1.40;;
47365;SDS011;33105;47.964;7.982;2022-07-17T08:46:38;3.40;;;1.48;;
47365;SDS011;33105;47.964;7.982;2022-07-17T08:49:43;11.35;;;1.67;;
47365;SDS011;33105;47.964;7.982;2022-07-17T08:52:46;5.50;;;1.95;;
47365;SDS011;33105;47.964;7.982;2022-07-17T08:55:48;5.20;;;2.05;;
47365;SDS011;33105;47.964;7.982;2022-07-17T08:58:49;2.75;;;1.60;;
47365;SDS011;33105;47.964;7.982;2022-07-17T09:01:51;6.50;;;1.65;;
47365;SDS011;33105;47.964;7.982;2022-07-17T09:04:53;3.83;;;1.70;;
47365;SDS011;33105;47.964;7.982;2022-07-17T09:07:55;3.83;;;1.60;;
47365;SDS011;33105;47.964;7.982;2022-07-17T09:10:57;4.90;;;1.60;;
47365;SDS011;33105;47.964;7.982;2022-07-17T09:13:59;3.85;;;1.73;;
47365;SDS011;33105;47.964;7.982;2022-07-17T09:17:00;3.35;;;1.40;;
47365;SDS011;33105;47.964;7.982;2022-07-17T09:20:12;3.45;;;1.50;;
47365;SDS011;33105;47.964;7.982;2022-07-17T09:23:13;4.00;;;1.77;;
47365;SDS011;33105;47.964;7.982;2022-07-17T09:26:15;2.55;;;1.70;;
47365;SDS011;33105;47.964;7.982;2022-07-17T09:29:16;2.83;;;1.50;;
47365;SDS011;33105;47.964;7.982;2022-07-17T09:32:18;3.75;;;1.40;;
47365;SDS011;33105;47.964;7.982;2022-07-17T09:35:21;4.88;;;1.58;;
47365;SDS011;33105;47.964;7.982;2022-07-17T09:41:36;3.22;;;1.60;;
47365;SDS011;33105;47.964;7.982;2022-07-17T09:44:37;3.60;;;1.60;;
47365;SDS011;33105;47.964;7.982;2022-07-17T09:47:39;6.47;;;2.15;;
47365;SDS011;33105;47.964;7.982;2022-07-17T09:50:40;3.78;;;1.52;;
47365;SDS011;33105;47.964;7.982;2022-07-17T09:53:43;8.75;;;2.20;;
47365;SDS011;33105;47.964;7.982;2022-07-17T09:56:46;5.15;;;1.70;;
47365;SDS011;33105;47.964;7.982;2022-07-17T09:59:53;5.03;;;1.80;;
47365;SDS011;33105;47.964;7.982;2022-07-17T10:02:56;6.53;;;1.70;;
47365;SDS011;33105;47.964;7.982;2022-07-17T10:05:58;4.63;;;1.73;;
47365;SDS011;33105;47.964;7.982;2022-07-17T10:09:00;4.55;;;1.55;;
47365;SDS011;33105;47.964;7.982;2022-07-17T10:12:01;4.35;;;1.85;;
47365;SDS011;33105;47.964;7.982;2022-07-17T10:15:03;6.85;;;1.50;;
47365;SDS011;33105;47.964;7.982;2022-07-17T10:18:06;5.88;;;1.92;;
47365;SDS011;33105;47.964;7.982;2022-07-17T10:21:17;3.17;;;1.60;;
47365;SDS011;33105;47.964;7.982;2022-07-17T10:24:20;7.35;;;2.25;;
47365;SDS011;33105;47.964;7.982;2022-07-17T10:27:22;3.25;;;1.60;;
47365;SDS011;33105;47.964;7.982;2022-07-17T10:30:25;7.47;;;1.92;;
47365;SDS011;33105;47.964;7.982;2022-07-17T10:33:28;4.50;;;1.80;;
47365;SDS011;33105;47.964;7.982;2022-07-17T10:36:33;8.38;;;1.60;;
47365;SDS011;33105;47.964;7.982;2022-07-17T10:39:39;5.13;;;1.80;;
47365;SDS011;33105;47.964;7.982;2022-07-17T10:45:50;5.95;;;1.70;;
47365;SDS011;33105;47.964;7.982;2022-07-17T10:48:51;2.63;;;1.50;;
47365;SDS011;33105;47.964;7.982;2022-07-17T10:51:53;6.07;;;1.60;;
47365;SDS011;33105;47.964;7.982;2022-07-17T10:54:55;3.63;;;1.50;;
47365;SDS011;33105;47.964;7.982;2022-07-17T10:57:56;5.90;;;1.70;;
47365;SDS011;33105;47.964;7.982;2022-07-17T11:01:12;2.78;;;1.70;;
47365;SDS011;33105;47.964;7.982;2022-07-17T11:04:17;8.55;;;1.90;;
47365;SDS011;33105;47.964;7.982;2022-07-17T11:07:19;3.65;;;1.65;;
47365;SDS011;33105;47.964;7.982;2022-07-17T11:10:21;5.05;;;1.63;;
47365;SDS011;33105;47.964;7.982;2022-07-17T11:13:23;5.95;;;1.70;;
47365;SDS011;33105;47.964;7.982;2022-07-17T11:16:28;5.55;;;1.15;;
47365;SDS011;33105;47.964;7.982;2022-07-17T11:19:34;1.90;;;1.38;;
47365;SDS011;33105;47.964;7.982;2022-07-17T11:22:40;3.65;;;1.45;;
47365;SDS011;33105;47.964;7.982;2022-07-17T11:29:03;4.07;;;1.40;;
47365;SDS011;33105;47.964;7.982;2022-07-17T11:32:05;4.90;;;1.60;;
47365;SDS011;33105;47.964;7.982;2022-07-17T11:35:16;4.45;;;1.80;;
47365;SDS011;33105;47.964;7.982;2022-07-17T11:38:26;5.45;;;1.50;;
47365;SDS011;33105;47.964;7.982;2022-07-17T11:44:37;2.20;;;1.75;;
47365;SDS011;33105;47.964;7.982;2022-07-17T11:47:39;3.20;;;1.50;;
47365;SDS011;33105;47.964;7.982;2022-07-17T11:50:40;2.15;;;1.23;;
47365;SDS011;33105;47.964;7.982;2022-07-17T11:53:42;2.88;;;1.40;;
47365;SDS011;33105;47.964;7.982;2022-07-17T11:56:50;2.08;;;1.20;;
47365;SDS011;33105;47.964;7.982;2022-07-17T12:00:04;2.95;;;1.40;;
47365;SDS011;33105;47.964;7.982;2022-07-17T12:03:10;1.83;;;1.40;;
47365;SDS011;33105;47.964;7.982;2022-07-17T12:06:12;4.22;;;1.65;;
47365;SDS011;33105;47.964;7.982;2022-07-17T12:09:13;7.20;;;1.88;;
47365;SDS011;33105;47.964;7.982;2022-07-17T12:12:22;4.88;;;1.90;;
47365;SDS011;33105;47.964;7.982;2022-07-17T12:18:40;3.35;;;1.60;;
47365;SDS011;33105;47.964;7.982;2022-07-17T12:22:03;4.32;;;1.70;;
47365;SDS011;33105;47.964;7.982;2022-07-17T12:25:05;2.38;;;1.52;;
47365;SDS011;33105;47.964;7.982;2022-07-17T12:28:06;3.28;;;1.60;;
47365;SDS011;33105;47.964;7.982;2022-07-17T12:31:08;3.78;;;1.70;;
47365;SDS011;33105;47.964;7.982;2022-07-17T12:34:11;3.60;;;1.58;;
47365;SDS011;33105;47.964;7.982;2022-07-17T12:37:16;2.75;;;1.40;;
47365;SDS011;33105;47.964;7.982;2022-07-17T12:40:22;2.67;;;1.42;;
47365;SDS011;33105;47.964;7.982;2022-07-17T12:43:23;5.85;;;1.58;;
47365;SDS011;33105;47.964;7.982;2022-07-17T12:46:25;4.18;;;1.58;;
47365;SDS011;33105;47.964;7.982;2022-07-17T12:49:27;6.75;;;1.42;;
47365;SDS011;33105;47.964;7.982;2022-07-17T12:52:29;4.47;;;1.77;;
47365;SDS011;33105;47.964;7.982;2022-07-17T12:55:30;1.85;;;1.30;;
47365;SDS011;33105;47.964;7.982;2022-07-17T12:58:33;2.92;;;1.60;;
47365;SDS011;33105;47.964;7.982;2022-07-17T13:01:35;2.28;;;1.50;;
47365;SDS011;33105;47.964;7.982;2022-07-17T13:04:36;2.47;;;1.42;;
47365;SDS011;33105;47.964;7.982;2022-07-17T13:07:38;1.88;;;1.25;;
47365;SDS011;33105;47.964;7.982;2022-07-17T13:10:40;3.20;;;1.58;;
47365;SDS011;33105;47.964;7.982;2022-07-17T13:13:42;2.55;;;1.42;;
47365;SDS011;33105;47.964;7.982;2022-07-17T13:16:43;3.70;;;1.27;;
47365;SDS011;33105;47.964;7.982;2022-07-17T13:19:45;3.13;;;1.65;;
47365;SDS011;33105;47.964;7.982;2022-07-17T13:22:47;3.20;;;1.60;;
47365;SDS011;33105;47.964;7.982;2022-07-17T13:25:49;2.22;;;1.48;;
47365;SDS011;33105;47.964;7.982;2022-07-17T13:28:50;4.38;;;1.33;;
47365;SDS011;33105;47.964;7.982;2022-07-17T13:31:52;2.47;;;1.30;;
47365;SDS011;33105;47.964;7.982;2022-07-17T13:34:54;6.00;;;1.15;;
47365;SDS011;33105;47.964;7.982;2022-07-17T13:37:55;2.10;;;1.50;;
47365;SDS011;33105;47.964;7.982;2022-07-17T13:41:02;6.00;;;1.90;;
47365;SDS011;33105;47.964;7.982;2022-07-17T13:44:05;4.93;;;1.60;;
47365;SDS011;33105;47.964;7.982;2022-07-17T13:47:06;6.50;;;1.50;;
47365;SDS011;33105;47.964;7.982;2022-07-17T13:50:08;4.75;;;1.38;;
47365;SDS011;33105;47.964;7.982;2022-07-17T13:53:09;5.47;;;1.90;;
47365;SDS011;33105;47.964;7.982;2022-07-17T13:56:12;5.90;;;1.30;;
47365;SDS011;33105;47.964;7.982;2022-07-17T13:59:13;2.85;;;1.20;;
47365;SDS011;33105;47.964;7.982;2022-07-17T14:02:14;3.22;;;1.63;;
47365;SDS011;33105;47.964;7.982;2022-07-17T14:05:16;4.90;;;1.40;;
47365;SDS011;33105;47.964;7.982;2022-07-17T14:08:17;3.22;;;1.40;;
47365;SDS011;33105;47.964;7.982;2022-07-17T14:11:18;3.88;;;1.50;;
47365;SDS011;33105;47.964;7.982;2022-07-17T14:14:20;4.50;;;1.30;;
47365;SDS011;33105;47.964;7.982;2022-07-17T14:17:22;3.17;;;1.35;;
47365;SDS011;33105;47.964;7.982;2022-07-17T14:20:23;5.47;;;1.20;;
47365;SDS011;33105;47.964;7.982;2022-07-17T14:23:24;4.25;;;1.50;;
47365;SDS011;33105;47.964;7.982;2022-07-17T14:26:26;2.10;;;1.55;;
47365;SDS011;33105;47.964;7.982;2022-07-17T14:29:28;5.05;;;1.80;;
47365;SDS011;33105;47.964;7.982;2022-07-17T14:32:29;4.50;;;1.90;;
47365;SDS011;33105;47.964;7.982;2022-07-17T14:35:30;2.55;;;1.40;;
47365;SDS011;33105;47.964;7.982;2022-07-17T14:38:32;6.35;;;1.60;;
47365;SDS011;33105;47.964;7.982;2022-07-17T14:41:33;3.67;;;1.23;;
47365;SDS011;33105;47.964;7.982;2022-07-17T14:44:34;4.50;;;1.40;;
47365;SDS011;33105;47.964;7.982;2022-07-17T14:47:36;2.33;;;1.33;;
47365;SDS011;33105;47.964;7.982;2022-07-17T14:50:37;2.83;;;1.25;;
47365;SDS011;33105;47.964;7.982;2022-07-17T14:53:39;2.53;;;1.42;;
47365;SDS011;33105;47.964;7.982;2022-07-17T14:56:40;2.90;;;1.33;;
47365;SDS011;33105;47.964;7.982;2022-07-17T14:59:42;6.63;;;1.67;;
47365;SDS011;33105;47.964;7.982;2022-07-17T15:02:43;6.80;;;1.40;;
47365;SDS011;33105;47.964;7.982;2022-07-17T15:05:45;6.25;;;1.67;;
47365;SDS011;33105;47.964;7.982;2022-07-17T15:08:46;7.28;;;1.60;;
47365;SDS011;33105;47.964;7.982;2022-07-17T15:11:47;4.05;;;1.50;;
47365;SDS011;33105;47.964;7.982;2022-07-17T15:14:49;3.45;;;1.15;;
47365;SDS011;33105;47.964;7.982;2022-07-17T15:17:50;2.63;;;1.45;;
47365;SDS011;33105;47.964;7.982;2022-07-17T15:20:52;4.18;;;1.23;;
47365;SDS011;33105;47.964;7.982;2022-07-17T15:23:53;6.10;;;1.70;;
47365;SDS011;33105;47.964;7.982;2022-07-17T15:26:54;2.58;;;1.30;;
47365;SDS011;33105;47.964;7.982;2022-07-17T15:29:56;2.35;;;1.30;;
47365;SDS011;33105;47.964;7.982;2022-07-17T15:32:57;5.18;;;1.77;;
47365;SDS011;33105;47.964;7.982;2022-07-17T15:35:59;3.58;;;1.38;;
47365;SDS011;33105;47.964;7.982;2022-07-17T15:39:01;3.35;;;1.33;;
47365;SDS011;33105;47.964;7.982;2022-07-17T15:42:04;3.22;;;1.20;;
47365;SDS011;33105;47.964;7.982;2022-07-17T15:45:05;4.55;;;1.30;;
47365;SDS011;33105;47.964;7.982;2022-07-17T15:48:08;3.08;;;1.08;;
47365;SDS011;33105;47.964;7.982;2022-07-17T15:51:10;3.05;;;1.30;;
47365;SDS011;33105;47.964;7.982;2022-07-17T15:54:11;3.15;;;1.20;;
47365;SDS011;33105;47.964;7.982;2022-07-17T15:57:12;3.35;;;1.13;;
47365;SDS011;33105;47.964;7.982;2022-07-17T16:00:14;4.63;;;1.42;;
47365;SDS011;33105;47.964;7.982;2022-07-17T16:03:16;2.92;;;1.48;;
47365;SDS011;33105;47.964;7.982;2022-07-17T16:06:17;3.28;;;1.20;;
47365;SDS011;33105;47.964;7.982;2022-07-17T16:09:19;5.10;;;1.40;;
47365;SDS011;33105;47.964;7.982;2022-07-17T16:12:20;1.55;;;1.30;;
47365;SDS011;33105;47.964;7.982;2022-07-17T16:15:21;7.80;;;1.58;;
47365;SDS011;33105;47.964;7.982;2022-07-17T16:18:22;8.63;;;1.38;;
47365;SDS011;33105;47.964;7.982;2022-07-17T16:21:24;1.45;;;1.25;;
47365;SDS011;33105;47.964;7.982;2022-07-17T16:24:25;4.15;;;1.10;;
47365;SDS011;33105;47.964;7.982;2022-07-17T16:27:26;6.55;;;1.73;;
47365;SDS011;33105;47.964;7.982;2022-07-17T16:30:28;4.07;;;1.38;;
47365;SDS011;33105;47.964;7.982;2022-07-17T16:33:29;4.57;;;1.38;;
47365;SDS011;33105;47.964;7.982;2022-07-17T16:36:30;5.72;;;1.20;;
47365;SDS011;33105;47.964;7.982;2022-07-17T16:39:32;3.30;;;1.20;;
47365;SDS011;33105;47.964;7.982;2022-07-17T16:42:33;4.65;;;1.40;;
47365;SDS011;33105;47.964;7.982;2022-07-17T16:45:34;5.35;;;1.10;;
47365;SDS011;33105;47.964;7.982;2022-07-17T16:48:36;5.25;;;1.35;;
47365;SDS011;33105;47.964;7.982;2022-07-17T16:51:38;8.13;;;1.45;;
47365;SDS011;33105;47.964;7.982;2022-07-17T16:54:39;4.22;;;1.40;;
47365;SDS011;33105;47.964;7.982;2022-07-17T16:57:41;4.05;;;1.02;;
47365;SDS011;33105;47.964;7.982;2022-07-17T17:00:43;6.40;;;1.30;;
47365;SDS011;33105;47.964;7.982;2022-07-17T17:03:45;5.55;;;1.23;;
47365;SDS011;33105;47.964;7.982;2022-07-17T17:06:48;3.53;;;1.13;;
47365;SDS011;33105;47.964;7.982;2022-07-17T17:09:49;5.10;;;1.20;;
47365;SDS011;33105;47.964;7.982;2022-07-17T17:12:51;2.92;;;1.10;;
47365;SDS011;33105;47.964;7.982;2022-07-17T17:15:52;3.13;;;1.20;;
47365;SDS011;33105;47.964;7.982;2022-07-17T17:18:54;4.57;;;1.30;;
47365;SDS011;33105;47.964;7.982;2022-07-17T17:21:55;6.03;;;1.33;;
47365;SDS011;33105;47.964;7.982;2022-07-17T17:24:57;6.65;;;0.98;;
47365;SDS011;33105;47.964;7.982;2022-07-17T17:27:58;2.28;;;1.10;;
47365;SDS011;33105;47.964;7.982;2022-07-17T17:30:59;2.72;;;0.90;;
47365;SDS011;33105;47.964;7.982;2022-07-17T17:34:01;3.65;;;1.08;;
47365;SDS011;33105;47.964;7.982;2022-07-17T17:37:03;2.92;;;1.17;;
47365;SDS011;33105;47.964;7.982;2022-07-17T17:40:05;2.85;;;1.25;;
47365;SDS011;33105;47.964;7.982;2022-07-17T17:43:07;4.53;;;1.00;;
47365;SDS011;33105;47.964;7.982;2022-07-17T17:46:09;4.32;;;1.42;;
47365;SDS011;33105;47.964;7.982;2022-07-17T17:49:10;3.10;;;1.00;;
47365;SDS011;33105;47.964;7.982;2022-07-17T17:52:12;1.88;;;1.05;;
47365;SDS011;33105;47.964;7.982;2022-07-17T17:55:13;2.08;;;1.05;;
47365;SDS011;33105;47.964;7.982;2022-07-17T17:58:15;1.77;;;1.10;;
47365;SDS011;33105;47.964;7.982;2022-07-17T18:01:16;4.05;;;1.60;;
47365;SDS011;33105;47.964;7.982;2022-07-17T18:04:17;1.92;;;1.00;;
47365;SDS011;33105;47.964;7.982;2022-07-17T18:07:18;4.50;;;1.05;;
47365;SDS011;33105;47.964;7.982;2022-07-17T18:10:21;1.77;;;1.13;;
47365;SDS011;33105;47.964;7.982;2022-07-17T18:13:22;12.05;;;2.25;;
47365;SDS011;33105;47.964;7.982;2022-07-17T18:16:27;5.50;;;1.30;;
47365;SDS011;33105;47.964;7.982;2022-07-17T18:19:28;3.90;;;1.27;;
47365;SDS011;33105;47.964;7.982;2022-07-17T18:22:30;3.13;;;1.10;;
47365;SDS011;33105;47.964;7.982;2022-07-17T18:25:31;1.27;;;1.15;;
47365;SDS011;33105;47.964;7.982;2022-07-17T18:28:33;5.05;;;1.10;;
47365;SDS011;33105;47.964;7.982;2022-07-17T18:31:34;5.75;;;1.00;;
47365;SDS011;33105;47.964;7.982;2022-07-17T18:34:35;2.15;;;1.40;;